Port Burwell, Canada
Current Conditions -  °F | °C
As of 3:00 PM on Wednesday 26 Nov 2014 (Local Time) from CYXU Reporting Station
Overcast Overcast  
Wind Chill: 24°   Ceiling: 3900
Heat Index: 32°   Visibility: 15mi
Dew Point: 27°   Wind: 10mph
Humidity: 80%   Direction: 70°ENE
Pressure: 30.08"   Gusts: NA
Location:  42.65°N, 80.82°W
Report Text: CYXU 262000Z 07009KT 15SM FEW020 OVC039 00/M03 A3008 RMK CU1SC7 SLP198
Loading
Personal Weather Stations






























Interactive Weather Map New forecast layout! Learn more

10-Day Weather Forecast

Advertisements
Track Severe Weather on mobile